Huvudsida
METAR-TAF:

METAR-TAF

Flygplatser :

El Salvador, El Salvador

latitud: 13-26N, longitud: 089-03W, höjd: 25 m

Aktuellt väderrapport

Denna rapport gjordes för 20 minuter sedan, klockan 20:40 UTC
Vind 18 kt från nord i byarna ända upp till 34 kt
Temperatur 32°C
Fuktighet 38%
Tryck 1011 hPa
Sikt 10 km eller mer
Inga moln under 1 500 m eller inga cumulonimbus

METAR: MSLP 112040Z 01018G34KT CAVOK 32/16 Q1011 NOSIG

Tid: 15:00 (21:00 UTC)

Väderprognos

Denna rapport gjordes för 5 timmar och 35 minuter sedan, klockan 15:25 UTC
Prognos gäller från 11 kl. 18 UTC till 12 kl. 18 UTC
Vind 15 kt från nord/nordost i byarna ända upp till 30 kt
Sikt 10 km eller mer
Få moln på en höjd av 7000 ft

TAF: MSLP 111525Z 1118/1218 03015G30KT 9999 FEW070 TX34/1118Z TN20/1212Z

Aktuella väderrapporter och prognoser från 4000 flygplatser (METAR- och TAF-rapporter).

De tillgängliga stationerna syns som gula och röda prickar på kartan.

För musen över prickarna för att se namnen på stationerna.

Klicka sedan för att få väderrapporter och prognoser.

För att ändra kartan: Klicka på de gröna knapparna med ett svart kors på för att zooma in; den gröna knappen med ett streck på för att zooma ut; eller på de gröna pilarna för angränsande kartor.


METAR-TAF: